Time;durP1;ratioP1;P1;durP2;ratioP2;P2;SDS_P1;SDS_P2;PMS_P1;PMS_P2;Temp;Humidity;BMP_temperature;BMP_pressure;BME280_temperature;BME280_humidity;BME280_pressure;Samples;Min_cycle;Max_cycle;Signal;HPM_P1;HPM_P2
2023/04/29 00:01:38;;;;;;;5.07;4.05;;;;;;;5.37;85.21;99050.19;7341366;19;20074;-73
2023/04/29 00:04:02;;;;;;;5.55;3.70;;;;;;;5.29;85.18;99057.72;7345340;19;20018;-72
2023/04/29 00:06:28;;;;;;;5.45;4.38;;;;;;;5.23;85.56;99063.34;7343455;19;20018;-73
2023/04/29 00:08:52;;;;;;;5.38;4.28;;;;;;;5.26;85.85;99060.53;7345063;19;20022;-74
2023/04/29 00:11:17;;;;;;;4.88;3.22;;;;;;;5.26;86.04;99054.41;7345476;19;20106;-74
2023/04/29 00:13:42;;;;;;;4.28;3.10;;;;;;;5.25;85.81;99050.06;7345487;19;20019;-75
2023/04/29 00:16:09;;;;;;;4.80;3.72;;;;;;;5.22;85.54;99051.09;7345617;19;20462;-73
2023/04/29 00:18:33;;;;;;;4.55;3.67;;;;;;;5.24;85.64;99048.34;7345316;19;20029;-74
2023/04/29 00:20:58;;;;;;;6.80;3.50;;;;;;;5.23;85.68;99055.44;7349204;19;20019;-70
2023/04/29 00:23:23;;;;;;;5.47;3.67;;;;;;;5.21;85.52;99044.09;7350302;19;20015;-73
2023/04/29 00:25:48;;;;;;;5.55;4.10;;;;;;;5.20;85.47;99039.75;7345647;19;20011;-73
2023/04/29 00:28:12;;;;;;;5.55;5.00;;;;;;;5.18;85.57;99036.38;7345966;19;20038;-69
2023/04/29 00:30:37;;;;;;;4.07;3.20;;;;;;;5.19;85.40;99043.34;7345248;19;20029;-74
2023/04/29 00:33:02;;;;;;;3.92;3.20;;;;;;;5.14;85.13;99026.91;7346936;19;20017;-73
2023/04/29 00:35:27;;;;;;;2.35;2.13;;;;;;;5.10;85.01;99025.38;7346217;19;20018;-74
2023/04/29 00:37:52;;;;;;;5.05;2.63;;;;;;;5.03;85.01;99051.31;7348800;19;20017;-77
2023/04/29 00:40:17;;;;;;;4.15;3.47;;;;;;;4.96;85.17;99038.56;7357264;19;20687;-76
2023/04/29 00:42:42;;;;;;;5.10;3.15;;;;;;;4.89;85.46;99035.41;7357570;19;20006;-74
2023/04/29 00:45:10;;;;;;;4.00;3.30;;;;;;;4.86;85.48;99040.00;7364142;19;20014;-76
2023/04/29 00:47:35;;;;;;;4.95;2.55;;;;;;;4.80;85.44;99025.38;7363434;19;20018;-78
2023/04/29 00:50:00;;;;;;;2.92;2.60;;;;;;;4.80;85.41;99032.47;7357167;19;20019;-71
2023/04/29 00:52:27;;;;;;;2.60;2.35;;;;;;;4.74;85.26;99034.50;7344035;19;20019;-68
2023/04/29 00:54:52;;;;;;;2.83;2.10;;;;;;;4.70;85.41;99037.44;7347329;19;20018;-67
2023/04/29 00:57:18;;;;;;;3.33;2.78;;;;;;;4.66;85.69;99026.19;7344155;19;20033;-66
2023/04/29 00:59:44;;;;;;;3.03;2.33;;;;;;;4.64;85.84;99030.69;7341256;19;20026;-68
2023/04/29 01:02:09;;;;;;;3.47;2.60;;;;;;;4.63;86.10;99031.63;7345575;19;20055;-67
2023/04/29 01:04:34;;;;;;;3.63;2.35;;;;;;;4.62;86.30;99031.75;7345188;19;20018;-68
2023/04/29 01:07:17;;;;;;;3.60;2.65;;;;;;;4.70;86.67;99026.88;7344306;19;20007;-67
2023/04/29 01:10:09;;;;;;;3.80;2.72;;;;;;;4.74;86.65;99031.84;7344796;19;20010;-68
2023/04/29 01:13:06;;;;;;;2.95;2.75;;;;;;;4.77;86.72;99035.28;7346764;19;20029;-68
2023/04/29 01:16:02;;;;;;;3.08;2.78;;;;;;;4.81;86.93;99028.88;7345343;19;20025;-68
2023/04/29 01:18:48;;;;;;;4.85;3.08;;;;;;;4.79;87.19;99028.13;7341390;19;20011;-66
2023/04/29 01:21:16;;;;;;;3.00;2.67;;;;;;;4.83;87.27;99037.56;7343808;19;20090;-66
2023/04/29 01:23:43;;;;;;;3.53;2.92;;;;;;;4.86;87.46;99026.81;7343843;19;20018;-66
2023/04/29 01:26:08;;;;;;;3.78;3.38;;;;;;;4.91;87.45;99035.31;7343177;19;20025;-66
2023/04/29 01:29:01;;;;;;;3.83;3.30;;;;;;;4.98;87.54;99040.16;7344070;19;20453;-67
2023/04/29 01:31:45;;;;;;;4.80;3.60;;;;;;;4.99;87.58;99039.22;7345618;19;20017;-66
2023/04/29 01:34:27;;;;;;;3.83;3.50;;;;;;;5.06;87.55;99031.81;7342715;19;20465;-69
2023/04/29 01:37:04;;;;;;;5.25;3.67;;;;;;;4.97;87.38;99021.75;7340068;19;20021;-67
2023/04/29 01:39:45;;;;;;;5.30;3.60;;;;;;;4.93;87.67;99028.16;7343604;19;20491;-67
2023/04/29 01:42:27;;;;;;;5.90;3.42;;;;;;;4.90;87.80;99031.84;7340064;19;20350;-67
2023/04/29 01:44:55;;;;;;;4.35;3.47;;;;;;;4.82;87.99;99009.47;7340883;19;20014;-65
2023/04/29 01:47:21;;;;;;;8.35;3.33;;;;;;;4.75;88.29;99022.16;7340843;19;20018;-71
2023/04/29 01:49:49;;;;;;;4.22;2.92;;;;;;;4.77;88.66;99014.16;7340749;19;20376;-71
2023/04/29 01:52:14;;;;;;;5.22;4.30;;;;;;;4.77;88.68;99022.91;7336742;19;20020;-70
2023/04/29 01:54:47;;;;;;;5.20;4.13;;;;;;;4.77;89.15;99020.28;7337651;19;20011;-70
2023/04/29 01:57:12;;;;;;;6.05;3.25;;;;;;;4.84;89.38;99018.16;7339901;19;20078;-67
2023/04/29 01:59:53;;;;;;;6.70;3.75;;;;;;;4.89;89.44;99027.50;7341166;19;20042;-70
2023/04/29 02:02:36;;;;;;;4.72;3.70;;;;;;;4.82;89.00;99030.59;7341654;19;20031;-72
2023/04/29 02:05:32;;;;;;;3.88;3.25;;;;;;;4.79;89.00;99028.97;7340128;19;20019;-71
2023/04/29 02:07:59;;;;;;;3.38;2.60;;;;;;;4.82;89.15;99025.31;7340461;19;20048;-67
2023/04/29 02:10:24;;;;;;;4.78;3.50;;;;;;;4.75;89.11;99028.28;7337694;19;20014;-67
2023/04/29 02:12:58;;;;;;;3.72;3.25;;;;;;;4.77;89.14;99037.91;7342758;19;20015;-72
2023/04/29 02:15:26;;;;;;;3.03;2.72;;;;;;;4.74;89.17;99039.78;7338035;19;20029;-74
2023/04/29 02:17:51;;;;;;;4.10;2.88;;;;;;;4.72;89.30;99031.13;7339983;19;20081;-78
2023/04/29 02:20:18;;;;;;;4.43;3.15;;;;;;;4.74;89.49;99034.50;7341173;19;20015;-69
2023/04/29 02:22:43;;;;;;;4.20;3.63;;;;;;;4.69;89.08;99028.66;7340771;19;20023;-72
2023/04/29 02:25:10;;;;;;;3.97;2.97;;;;;;;4.73;89.34;99035.47;7339256;19;20014;-71
2023/04/29 02:27:35;;;;;;;3.67;3.00;;;;;;;4.80;89.55;99043.03;7340010;19;20296;-75
2023/04/29 02:29:59;;;;;;;3.75;3.10;;;;;;;4.85;89.57;99027.78;7344011;19;20019;-73
2023/04/29 02:32:24;;;;;;;6.30;3.63;;;;;;;4.87;89.69;99041.72;7343365;19;20466;-70
2023/04/29 02:34:49;;;;;;;3.35;3.05;;;;;;;4.90;89.73;99038.91;7340446;19;20070;-71
2023/04/29 02:37:14;;;;;;;5.15;3.63;;;;;;;4.90;89.61;99036.28;7341881;19;20011;-73
2023/04/29 02:39:40;;;;;;;4.65;3.58;;;;;;;4.90;89.73;99045.03;7343100;19;20011;-74
2023/04/29 02:42:04;;;;;;;3.97;3.25;;;;;;;4.89;89.73;99053.06;7343024;19;20335;-75
2023/04/29 02:44:30;;;;;;;5.03;3.65;;;;;;;4.92;89.73;99060.81;7349000;19;20354;-73
2023/04/29 02:46:55;;;;;;;4.68;3.45;;;;;;;4.94;89.90;99067.72;7351824;19;20492;-73
2023/04/29 02:49:20;;;;;;;3.88;3.05;;;;;;;4.95;89.87;99065.91;7343811;19;20357;-71
2023/04/29 02:51:45;;;;;;;3.50;3.03;;;;;;;4.94;89.72;99066.84;7344326;19;20018;-75
2023/04/29 02:54:10;;;;;;;4.40;3.40;;;;;;;4.96;89.89;99080.84;7342167;19;20026;-70
2023/04/29 02:56:35;;;;;;;2.90;2.70;;;;;;;4.95;89.99;99079.13;7342856;19;20020;-71
2023/04/29 02:59:00;;;;;;;2.95;2.50;;;;;;;4.95;89.90;99082.63;7344632;19;20457;-69
2023/04/29 03:01:26;;;;;;;2.60;2.40;;;;;;;4.92;89.93;99081.94;7337715;19;20575;-69
2023/04/29 03:03:51;;;;;;;3.05;2.58;;;;;;;4.84;89.95;99090.31;7339798;19;20022;-71
2023/04/29 03:06:16;;;;;;;4.65;2.55;;;;;;;4.83;90.04;99085.97;7339804;19;20490;-74
2023/04/29 03:08:41;;;;;;;3.92;2.58;;;;;;;4.79;90.02;99092.34;7343315;19;20457;-71
2023/04/29 03:11:05;;;;;;;3.50;2.40;;;;;;;4.75;90.00;99104.00;7342478;19;20029;-71
2023/04/29 03:13:30;;;;;;;2.13;1.92;;;;;;;4.75;90.21;99120.69;7340904;19;20330;-70
2023/04/29 03:15:57;;;;;;;4.95;2.15;;;;;;;4.76;90.21;99116.28;7341379;19;20018;-71
2023/04/29 03:18:22;;;;;;;2.97;2.65;;;;;;;4.73;90.27;99125.25;7341575;19;20342;-70
2023/04/29 03:20:47;;;;;;;2.60;2.22;;;;;;;4.69;90.38;99121.06;7341372;19;20354;-71
2023/04/29 03:23:13;;;;;;;2.95;2.65;;;;;;;4.70;90.53;99128.03;7350377;19;20102;-73
2023/04/29 03:25:39;;;;;;;2.50;2.10;;;;;;;4.74;90.45;99134.00;7347722;19;20441;-71
2023/04/29 03:28:07;;;;;;;3.25;2.60;;;;;;;4.77;90.53;99136.47;7347112;19;20014;-71
2023/04/29 03:30:32;;;;;;;3.05;2.75;;;;;;;4.79;90.49;99141.66;7349775;19;20060;-75
2023/04/29 03:32:57;;;;;;;4.95;3.60;;;;;;;4.84;90.61;99150.19;7346052;19;20011;-71
2023/04/29 03:35:24;;;;;;;5.47;3.17;;;;;;;4.78;90.61;99148.72;7344717;19;20022;-72
2023/04/29 03:38:16;;;;;;;3.58;2.90;;;;;;;4.76;90.66;99150.59;7346071;19;20022;-72
2023/04/29 03:40:42;;;;;;;3.85;2.92;;;;;;;4.66;90.58;99163.47;7344530;19;20021;-72
2023/04/29 03:43:08;;;;;;;4.40;2.67;;;;;;;4.62;90.75;99155.81;7344496;19;20010;-72
2023/04/29 03:45:34;;;;;;;2.65;2.45;;;;;;;4.59;90.73;99158.63;7343925;19;20018;-71
2023/04/29 03:47:59;;;;;;;4.57;2.65;;;;;;;4.57;90.88;99169.25;7344057;19;20015;-72
2023/04/29 03:50:24;;;;;;;2.22;1.50;;;;;;;4.54;90.92;99156.22;7347457;19;20011;-72
2023/04/29 03:52:50;;;;;;;1.90;1.67;;;;;;;4.48;90.79;99156.56;7343889;19;20014;-71
2023/04/29 03:55:16;;;;;;;2.25;1.98;;;;;;;4.48;90.96;99158.34;7343911;19;20015;-71
2023/04/29 03:57:42;;;;;;;8.85;2.65;;;;;;;4.55;91.05;99159.72;7344285;19;20044;-72
2023/04/29 04:00:09;;;;;;;2.60;2.22;;;;;;;4.59;90.99;99171.81;7344806;19;20086;-71
2023/04/29 04:02:46;;;;;;;5.13;2.38;;;;;;;4.59;91.03;99171.81;7344329;19;20027;-71
2023/04/29 04:05:13;;;;;;;2.97;1.70;;;;;;;4.59;90.92;99170.03;7342717;19;20122;-71
2023/04/29 04:07:41;;;;;;;2.10;1.90;;;;;;;4.55;90.97;99173.75;7343478;19;20014;-72
2023/04/29 04:10:28;;;;;;;2.15;1.95;;;;;;;4.49;91.12;99168.84;7344811;19;20018;-71
2023/04/29 04:12:55;;;;;;;2.58;2.30;;;;;;;4.42;91.12;99166.59;7345216;19;20018;-71
2023/04/29 04:15:21;;;;;;;4.88;2.28;;;;;;;4.43;91.20;99176.22;7345889;19;20078;-71
2023/04/29 04:17:46;;;;;;;3.80;2.25;;;;;;;4.43;91.10;99177.06;7343957;19;20394;-70
2023/04/29 04:20:12;;;;;;;2.22;1.95;;;;;;;4.46;91.44;99173.41;7343411;19;20007;-70
2023/04/29 04:22:37;;;;;;;2.50;2.30;;;;;;;4.47;91.43;99175.97;7343516;19;20018;-71
2023/04/29 04:25:13;;;;;;;2.80;2.42;;;;;;;4.50;91.51;99174.97;7342016;19;20007;-70
2023/04/29 04:27:38;;;;;;;4.50;2.42;;;;;;;4.52;91.55;99180.97;7345280;19;20021;-69
2023/04/29 04:30:08;;;;;;;3.15;2.35;;;;;;;4.53;91.46;99194.09;7343081;19;20014;-71
2023/04/29 04:32:33;;;;;;;2.35;2.15;;;;;;;4.61;91.51;99173.44;7342425;19;20026;-71
2023/04/29 04:34:58;;;;;;;3.50;2.97;;;;;;;4.65;91.49;99177.59;7341596;19;20015;-71
2023/04/29 04:37:24;;;;;;;3.90;2.90;;;;;;;4.73;91.58;99175.41;7342738;19;20018;-73
2023/04/29 04:39:52;;;;;;;3.72;2.78;;;;;;;4.82;91.53;99168.75;7342806;19;20659;-71
2023/04/29 04:42:21;;;;;;;2.40;2.20;;;;;;;4.85;91.64;99163.31;7346842;19;20023;-71
2023/04/29 04:44:48;;;;;;;3.85;2.67;;;;;;;4.92;91.32;99161.16;7342073;19;20014;-71
2023/04/29 04:47:24;;;;;;;2.83;2.53;;;;;;;4.96;91.28;99175.91;7342266;19;20509;-70
2023/04/29 04:49:57;;;;;;;4.13;2.80;;;;;;;4.94;91.08;99167.22;7342200;19;20018;-72
2023/04/29 04:52:22;;;;;;;3.97;2.63;;;;;;;4.99;91.01;99175.72;7342606;19;20028;-72
2023/04/29 04:54:57;;;;;;;3.63;2.83;;;;;;;5.00;90.86;99167.72;7342195;19;20483;-71
2023/04/29 04:57:25;;;;;;;4.68;3.15;;;;;;;4.99;90.95;99167.81;7341686;19;20022;-71
2023/04/29 04:59:53;;;;;;;3.90;2.97;;;;;;;5.01;90.92;99165.94;7341491;19;20086;-71
2023/04/29 05:02:17;;;;;;;4.53;3.58;;;;;;;5.01;90.96;99172.06;7343192;19;20019;-70
2023/04/29 05:04:43;;;;;;;10.75;7.22;;;;;;;5.04;91.08;99181.63;7341355;19;20323;-71
2023/04/29 05:07:09;;;;;;;4.78;3.03;;;;;;;5.00;91.06;99178.28;7342101;19;20010;-71
2023/04/29 05:09:54;;;;;;;3.85;3.10;;;;;;;4.98;91.06;99181.94;7342139;19;20014;-70
2023/04/29 05:12:20;;;;;;;3.28;2.95;;;;;;;5.03;91.00;99182.56;7341073;19;20482;-71
2023/04/29 05:14:45;;;;;;;4.65;3.65;;;;;;;5.02;90.95;99165.00;7343371;19;20829;-71
2023/04/29 05:17:11;;;;;;;3.97;3.58;;;;;;;5.05;90.99;99175.41;7347401;19;20018;-70
2023/04/29 05:19:36;;;;;;;3.58;3.00;;;;;;;5.09;90.69;99171.63;7341664;19;20034;-70
2023/04/29 05:22:01;;;;;;;5.20;4.05;;;;;;;5.10;90.78;99170.69;7341905;19;20007;-70
2023/04/29 05:24:26;;;;;;;4.88;3.15;;;;;;;5.06;90.75;99171.81;7340583;19;20028;-70
2023/04/29 05:26:52;;;;;;;4.88;3.65;;;;;;;5.05;90.56;99180.69;7341389;19;20025;-70
2023/04/29 05:29:18;;;;;;;4.38;3.53;;;;;;;5.10;90.55;99178.63;7340791;19;20338;-70
2023/04/29 05:31:54;;;;;;;3.90;3.13;;;;;;;5.18;90.53;99175.56;7341165;19;20014;-69
2023/04/29 05:34:19;;;;;;;6.50;3.67;;;;;;;5.28;90.25;99189.94;7345405;19;20101;-72
2023/04/29 05:36:44;;;;;;;5.45;3.58;;;;;;;5.34;90.15;99187.78;7340813;19;20791;-70
2023/04/29 05:39:09;;;;;;;5.30;4.03;;;;;;;5.42;90.12;99188.19;7340510;19;20465;-72
2023/04/29 05:41:34;;;;;;;5.72;4.35;;;;;;;5.40;90.21;99187.47;7340596;19;20010;-70
2023/04/29 05:43:59;;;;;;;5.90;3.75;;;;;;;5.42;89.98;99192.63;7342300;19;20017;-70
2023/04/29 05:46:24;;;;;;;4.78;3.72;;;;;;;5.49;89.86;99201.94;7340718;19;20026;-70
2023/04/29 05:48:49;;;;;;;4.75;3.45;;;;;;;5.55;89.71;99195.41;7339578;19;20010;-71
2023/04/29 05:51:14;;;;;;;4.60;3.85;;;;;;;5.60;89.52;99214.53;7342447;19;20010;-70
2023/04/29 05:53:39;;;;;;;4.65;4.00;;;;;;;5.66;89.22;99214.16;7340599;19;20016;-71
2023/04/29 05:56:07;;;;;;;4.97;4.07;;;;;;;5.73;89.00;99213.72;7341930;19;20031;-71
2023/04/29 05:58:34;;;;;;;4.80;3.30;;;;;;;5.81;88.67;99219.41;7339763;19;20014;-69
2023/04/29 06:01:00;;;;;;;5.65;4.03;;;;;;;5.83;88.96;99224.63;7338558;19;20028;-70
2023/04/29 06:03:25;;;;;;;6.05;3.83;;;;;;;5.76;88.75;99228.53;7339676;19;20359;-71
2023/04/29 06:06:01;;;;;;;3.80;3.38;;;;;;;5.78;88.81;99224.03;7338324;19;20022;-71
2023/04/29 06:08:52;;;;;;;7.15;4.60;;;;;;;5.78;89.02;99234.59;7341456;19;20014;-71
2023/04/29 06:11:21;;;;;;;7.50;5.47;;;;;;;5.79;88.86;99236.31;7339954;19;20331;-71
2023/04/29 06:13:46;;;;;;;10.55;5.30;;;;;;;5.82;88.50;99229.06;7343778;19;20388;-72
2023/04/29 06:16:11;;;;;;;7.95;6.38;;;;;;;5.92;88.36;99247.91;7339374;19;20025;-72
2023/04/29 06:18:37;;;;;;;7.85;5.15;;;;;;;6.03;88.30;99240.19;7340739;19;20018;-70
2023/04/29 06:21:02;;;;;;;5.45;4.18;;;;;;;6.11;88.19;99242.38;7339119;19;20022;-72
2023/04/29 06:23:26;;;;;;;6.00;5.00;;;;;;;6.23;87.93;99248.72;7340458;19;20035;-72
2023/04/29 06:25:52;;;;;;;11.18;4.53;;;;;;;6.30;87.99;99255.38;7337676;19;20014;-73
2023/04/29 06:28:17;;;;;;;7.30;3.60;;;;;;;6.40;87.45;99243.28;7340707;19;20018;-72
2023/04/29 06:30:42;;;;;;;4.57;3.75;;;;;;;6.61;87.42;99243.75;7339457;19;20057;-72
2023/04/29 06:33:11;;;;;;;4.93;4.35;;;;;;;6.80;86.57;99245.16;7339089;19;20025;-72
2023/04/29 06:35:40;;;;;;;6.35;3.70;;;;;;;7.09;86.75;99247.81;7339793;19;20672;-73
2023/04/29 06:38:06;;;;;;;5.63;3.92;;;;;;;7.57;86.98;99249.06;7340994;19;20015;-73
2023/04/29 06:40:34;;;;;;;6.25;3.60;;;;;;;7.93;85.82;99259.06;7344773;19;20014;-71
2023/04/29 06:43:28;;;;;;;6.28;3.97;;;;;;;7.92;85.42;99249.38;7336235;19;20014;-72
2023/04/29 06:46:23;;;;;;;8.40;4.78;;;;;;;7.76;83.98;99254.88;7334964;19;20022;-71
2023/04/29 06:49:14;;;;;;;4.90;3.97;;;;;;;7.67;83.90;99266.13;7335835;19;20018;-72
2023/04/29 06:51:41;;;;;;;13.77;4.68;;;;;;;7.52;84.88;99256.50;7336299;19;20127;-72
2023/04/29 06:54:06;;;;;;;4.65;4.18;;;;;;;7.33;84.42;99263.94;7335746;19;20550;-70
2023/04/29 06:56:31;;;;;;;5.70;4.25;;;;;;;7.35;84.18;99268.16;7343057;19;20597;-72
2023/04/29 06:58:55;;;;;;;11.70;4.45;;;;;;;7.48;83.05;99270.88;7343419;19;20022;-71
2023/04/29 07:01:20;;;;;;;8.25;4.82;;;;;;;7.56;82.90;99265.97;7341048;19;20837;-71
2023/04/29 07:03:46;;;;;;;5.93;4.32;;;;;;;7.52;83.05;99275.91;7343642;19;20029;-71
2023/04/29 07:06:11;;;;;;;5.22;4.03;;;;;;;7.70;82.50;99279.16;7340958;19;20487;-70
2023/04/29 07:08:36;;;;;;;16.50;4.68;;;;;;;7.87;80.62;99272.75;7343338;19;20007;-71
2023/04/29 07:11:01;;;;;;;12.13;4.30;;;;;;;8.05;81.02;99279.47;7343360;19;20014;-71
2023/04/29 07:13:26;;;;;;;6.05;3.90;;;;;;;8.21;81.79;99281.97;7347855;19;20018;-72
2023/04/29 07:15:51;;;;;;;7.65;4.30;;;;;;;8.20;81.79;99289.06;7343807;19;20018;-70
2023/04/29 07:18:16;;;;;;;7.03;4.50;;;;;;;8.19;80.16;99290.03;7342996;19;20015;-72
2023/04/29 07:20:43;;;;;;;9.43;4.45;;;;;;;8.72;78.53;99293.50;7344214;19;20019;-70
2023/04/29 07:23:08;;;;;;;11.82;4.85;;;;;;;9.17;77.83;99278.78;7345535;19;20100;-74
2023/04/29 07:25:33;;;;;;;12.38;4.82;;;;;;;9.31;77.49;99283.97;7347252;19;20007;-72
2023/04/29 07:27:58;;;;;;;9.48;4.75;;;;;;;9.27;78.48;99287.78;7345415;19;20077;-73
2023/04/29 07:30:23;;;;;;;6.07;4.43;;;;;;;9.30;79.02;99297.38;7345326;19;20357;-72
2023/04/29 07:32:49;;;;;;;7.00;4.22;;;;;;;9.36;77.52;99299.63;7345717;19;20026;-74
2023/04/29 07:35:16;;;;;;;5.82;4.10;;;;;;;9.40;78.39;99309.06;7345552;19;20078;-72
2023/04/29 07:37:42;;;;;;;11.60;4.68;;;;;;;9.28;75.87;99302.78;7346952;19;20007;-74
2023/04/29 07:40:08;;;;;;;7.90;4.57;;;;;;;9.29;77.01;99306.31;7344734;19;20018;-71
2023/04/29 07:42:33;;;;;;;6.03;4.45;;;;;;;9.20;77.18;99307.81;7344438;19;20014;-72
2023/04/29 07:44:59;;;;;;;8.65;5.45;;;;;;;8.97;76.91;99303.28;7346123;19;20053;-74
2023/04/29 07:47:24;;;;;;;10.77;5.15;;;;;;;9.12;76.06;99309.34;7346570;19;20006;-74
2023/04/29 07:49:49;;;;;;;10.75;5.97;;;;;;;9.25;74.41;99308.34;7348399;19;20026;-75
2023/04/29 07:52:14;;;;;;;7.15;5.07;;;;;;;9.31;71.69;99307.06;7350459;19;20014;-73
2023/04/29 07:54:38;;;;;;;9.65;4.90;;;;;;;9.51;74.11;99309.13;7347822;19;20462;-70
2023/04/29 07:57:03;;;;;;;8.93;5.07;;;;;;;9.78;72.08;99307.13;7347818;19;20018;-69
2023/04/29 07:59:32;;;;;;;6.93;3.85;;;;;;;9.86;70.50;99322.53;7342972;19;20015;-70
2023/04/29 08:01:57;;;;;;;8.57;4.30;;;;;;;10.05;71.08;99320.19;7343447;19;20019;-71
2023/04/29 08:04:23;;;;;;;8.65;4.90;;;;;;;10.45;69.92;99322.56;7343374;19;20025;-70
2023/04/29 08:06:56;;;;;;;7.88;3.80;;;;;;;10.71;69.95;99331.25;7343639;19;20081;-71
2023/04/29 08:09:21;;;;;;;6.72;4.03;;;;;;;10.94;67.09;99329.47;7342513;19;20018;-72
2023/04/29 08:11:46;;;;;;;6.00;4.03;;;;;;;12.94;67.32;99322.72;7346399;19;20019;-72
2023/04/29 08:14:11;;;;;;;6.85;3.83;;;;;;;15.77;61.76;99318.00;7345389;19;20033;-70
2023/04/29 08:16:36;;;;;;;5.28;3.97;;;;;;;16.77;60.41;99318.66;7342989;19;20037;-71
2023/04/29 08:19:01;;;;;;;7.90;4.10;;;;;;;17.14;57.27;99312.16;7344833;19;20018;-70
2023/04/29 08:21:26;;;;;;;4.95;3.65;;;;;;;17.39;55.23;99324.75;7344992;19;20010;-72
2023/04/29 08:23:52;;;;;;;6.63;4.03;;;;;;;18.79;56.89;99320.41;7345067;19;20474;-74
2023/04/29 08:26:17;;;;;;;5.68;3.75;;;;;;;21.27;50.38;99330.28;7341899;19;20014;-73
2023/04/29 08:28:42;;;;;;;7.85;4.07;;;;;;;23.58;45.18;99324.66;7346510;19;20015;-72
2023/04/29 08:31:06;;;;;;;4.18;3.38;;;;;;;25.09;44.16;99334.31;7346816;19;20018;-73
2023/04/29 08:33:33;;;;;;;7.05;3.72;;;;;;;25.66;41.19;99325.44;7346352;19;20014;-71
2023/04/29 08:36:02;;;;;;;10.75;3.78;;;;;;;25.94;39.12;99316.94;7347300;19;20011;-73
2023/04/29 08:38:27;;;;;;;4.28;3.80;;;;;;;25.48;38.14;99328.81;7343695;19;20030;-72
2023/04/29 08:40:52;;;;;;;6.78;3.72;;;;;;;25.38;38.84;99327.59;7343177;19;20011;-72
2023/04/29 08:43:18;;;;;;;6.63;3.78;;;;;;;25.09;40.62;99321.50;7344006;19;20022;-71
2023/04/29 08:45:45;;;;;;;4.78;3.40;;;;;;;23.67;41.29;99322.59;7341286;19;20419;-71
2023/04/29 08:48:10;;;;;;;3.53;3.20;;;;;;;21.98;43.93;99325.22;7342208;19;20018;-72
2023/04/29 08:50:40;;;;;;;3.95;3.55;;;;;;;20.20;45.86;99328.56;7343690;19;20026;-71
2023/04/29 08:53:09;;;;;;;4.30;3.70;;;;;;;19.85;47.69;99329.97;7342928;19;20413;-73
2023/04/29 08:55:41;;;;;;;3.65;3.15;;;;;;;21.93;46.40;99333.06;7343887;19;20413;-71
2023/04/29 08:58:07;;;;;;;3.75;3.33;;;;;;;23.41;42.19;99329.53;7347316;19;20019;-72
2023/04/29 09:00:34;;;;;;;8.88;4.30;;;;;;;24.98;39.21;99334.94;7340902;19;20502;-73
2023/04/29 09:03:04;;;;;;;5.45;3.58;;;;;;;25.46;37.47;99332.81;7343274;19;20039;-72
2023/04/29 09:05:29;;;;;;;6.20;3.60;;;;;;;24.44;37.20;99334.00;7341397;19;20031;-71
2023/04/29 09:07:58;;;;;;;4.43;3.38;;;;;;;22.87;39.65;99329.34;7341318;19;20022;-72
2023/04/29 09:10:23;;;;;;;4.38;3.63;;;;;;;20.94;43.00;99345.16;7343213;19;20473;-71
2023/04/29 09:12:48;;;;;;;11.63;3.97;;;;;;;19.33;44.55;99343.13;7346214;19;20060;-72
2023/04/29 09:15:13;;;;;;;5.68;3.67;;;;;;;18.00;46.75;99345.25;7345457;19;20082;-71
2023/04/29 09:17:45;;;;;;;6.70;4.38;;;;;;;19.13;46.86;99339.13;7344933;19;20022;-72
2023/04/29 09:20:19;;;;;;;8.73;4.03;;;;;;;22.38;39.65;99340.09;7343573;19;20018;-68
2023/04/29 09:22:51;;;;;;;5.00;3.90;;;;;;;25.83;33.77;99332.13;7345911;19;20017;-71
2023/04/29 09:25:16;;;;;;;11.38;3.78;;;;;;;28.49;32.43;99345.03;7342268;19;20022;-71
2023/04/29 09:27:41;;;;;;;7.20;3.80;;;;;;;30.86;29.41;99348.00;7342462;19;20026;-71
2023/04/29 09:30:07;;;;;;;4.47;3.60;;;;;;;32.40;27.90;99347.28;7341275;19;20033;-71
2023/04/29 09:32:32;;;;;;;4.43;3.45;;;;;;;31.79;27.15;99342.91;7343398;19;20014;-72
2023/04/29 09:34:56;;;;;;;4.32;3.67;;;;;;;31.60;27.14;99350.63;7342944;19;20027;-71
2023/04/29 09:37:26;;;;;;;4.40;3.97;;;;;;;32.61;25.87;99343.69;7350732;19;20015;-70
2023/04/29 09:39:51;;;;;;;6.30;4.00;;;;;;;32.03;25.45;99345.19;7354347;19;20007;-70
2023/04/29 09:42:16;;;;;;;4.10;3.60;;;;;;;30.06;26.00;99355.50;7353367;19;20022;-71
2023/04/29 09:44:42;;;;;;;6.55;4.20;;;;;;;27.60;27.57;99353.06;7347236;19;20011;-70
2023/04/29 09:47:12;;;;;;;8.27;3.90;;;;;;;25.68;29.99;99356.94;7349829;19;20019;-72
2023/04/29 09:49:40;;;;;;;3.63;3.33;;;;;;;23.85;31.35;99356.41;7345208;19;20030;-71
2023/04/29 09:52:10;;;;;;;6.45;3.90;;;;;;;24.59;30.76;99355.66;7346442;19;20018;-71
2023/04/29 09:54:37;;;;;;;4.20;3.67;;;;;;;25.84;28.93;99355.66;7352519;19;20018;-71
2023/04/29 09:57:05;;;;;;;5.30;3.85;;;;;;;27.71;26.14;99366.00;7346895;19;20017;-71
2023/04/29 09:59:31;;;;;;;7.75;4.65;;;;;;;29.53;23.83;99371.06;7342515;19;20007;-72
2023/04/29 10:01:57;;;;;;;7.00;4.20;;;;;;;29.76;23.31;99378.47;7340720;19;20030;-71
2023/04/29 10:04:25;;;;;;;7.07;4.35;;;;;;;28.36;24.61;99361.66;7343521;19;20531;-72
2023/04/29 10:06:53;;;;;;;5.40;3.70;;;;;;;26.31;26.36;99369.97;7339850;19;20015;-70
2023/04/29 10:09:19;;;;;;;4.68;3.70;;;;;;;24.08;28.57;99380.59;7339951;19;20473;-71
2023/04/29 10:11:46;;;;;;;5.25;3.80;;;;;;;22.21;31.05;99374.81;7341156;19;20124;-70
2023/04/29 10:14:19;;;;;;;6.28;3.60;;;;;;;20.91;32.70;99380.75;7341224;19;20353;-72
2023/04/29 10:16:47;;;;;;;5.45;3.50;;;;;;;19.31;34.40;99390.25;7342235;19;20078;-72
2023/04/29 10:19:37;;;;;;;8.60;3.60;;;;;;;18.77;35.10;99392.66;7343394;19;20018;-72
2023/04/29 10:22:48;;;;;;;4.68;3.22;;;;;;;18.21;37.58;99396.06;7342037;19;20476;-72
2023/04/29 10:25:15;;;;;;;7.47;3.65;;;;;;;17.44;37.63;99397.88;7339045;19;20018;-72
2023/04/29 10:27:45;;;;;;;5.55;4.20;;;;;;;17.50;37.38;99401.78;7342702;19;20026;-72
2023/04/29 10:30:14;;;;;;;7.18;3.28;;;;;;;17.52;36.71;99397.94;7342205;19;20018;-72
2023/04/29 10:32:40;;;;;;;7.68;3.67;;;;;;;17.30;36.27;99407.41;7339109;19;20026;-72
2023/04/29 10:35:08;;;;;;;3.90;3.13;;;;;;;17.27;35.37;99413.09;7339938;19;20349;-72
2023/04/29 10:37:33;;;;;;;5.90;3.45;;;;;;;17.28;36.82;99409.41;7342648;19;20477;-72
2023/04/29 10:40:23;;;;;;;6.80;3.30;;;;;;;17.41;35.89;99414.38;7341824;19;20461;-72
2023/04/29 10:42:49;;;;;;;3.67;3.13;;;;;;;17.31;34.52;99421.72;7339023;19;20357;-70
2023/04/29 10:45:46;;;;;;;3.95;2.85;;;;;;;17.61;35.79;99423.91;7342988;19;20362;-70
2023/04/29 10:48:12;;;;;;;7.45;3.38;;;;;;;17.33;35.26;99419.72;7343976;19;20135;-74
2023/04/29 10:51:00;;;;;;;4.18;3.13;;;;;;;17.59;33.98;99423.25;7342851;19;20018;-71
2023/04/29 10:53:26;;;;;;;5.35;3.17;;;;;;;17.17;36.26;99422.28;7343581;19;20059;-73
2023/04/29 10:55:57;;;;;;;5.43;2.83;;;;;;;17.01;36.63;99417.63;7339079;19;20022;-73
2023/04/29 10:58:40;;;;;;;6.25;3.20;;;;;;;16.80;37.04;99420.66;7338192;19;20038;-73
2023/04/29 11:01:09;;;;;;;4.95;3.13;;;;;;;16.34;37.16;99425.22;7335708;19;20019;-72
2023/04/29 11:03:53;;;;;;;12.40;3.63;;;;;;;16.52;37.55;99429.75;7340366;19;20014;-75
2023/04/29 11:06:18;;;;;;;7.38;4.03;;;;;;;16.14;38.36;99434.38;7336217;19;20006;-74
2023/04/29 11:08:43;;;;;;;6.93;3.28;;;;;;;15.98;38.30;99437.72;7338311;19;20114;-75
2023/04/29 11:11:08;;;;;;;7.30;3.53;;;;;;;15.77;38.14;99433.56;7338925;19;20018;-74
2023/04/29 11:13:38;;;;;;;3.90;2.92;;;;;;;15.68;38.90;99443.38;7337480;19;20042;-73
2023/04/29 11:16:11;;;;;;;7.97;2.63;;;;;;;15.55;37.52;99446.38;7337252;19;20344;-75
2023/04/29 11:19:08;;;;;;;3.22;2.80;;;;;;;15.52;39.14;99445.78;7337199;19;20433;-73
2023/04/29 11:21:35;;;;;;;6.30;3.15;;;;;;;15.04;39.11;99440.50;7339208;19;20541;-74
2023/04/29 11:24:01;;;;;;;4.70;2.42;;;;;;;14.78;38.51;99437.56;7338718;19;20026;-74
2023/04/29 11:26:25;;;;;;;7.13;3.45;;;;;;;14.63;40.21;99445.16;7341859;19;20015;-72
2023/04/29 11:28:51;;;;;;;7.10;3.08;;;;;;;14.52;39.64;99439.94;7338988;19;20049;-72
2023/04/29 11:31:18;;;;;;;4.95;2.45;;;;;;;14.45;40.70;99441.47;7340102;19;20022;-73
2023/04/29 11:33:43;;;;;;;3.13;2.45;;;;;;;14.42;40.42;99441.75;7341485;19;20029;-73
2023/04/29 11:36:10;;;;;;;10.52;2.63;;;;;;;14.53;40.96;99444.31;7339338;19;20018;-72
2023/04/29 11:38:39;;;;;;;5.18;3.20;;;;;;;14.66;40.30;99434.16;7340047;19;20038;-72
2023/04/29 11:41:03;;;;;;;7.63;3.72;;;;;;;14.69;39.18;99439.22;7343785;19;20045;-75
2023/04/29 11:43:28;;;;;;;3.83;3.15;;;;;;;14.58;38.66;99436.69;7347121;19;20019;-73
2023/04/29 11:45:53;;;;;;;4.75;2.65;;;;;;;14.56;39.14;99438.66;7349814;19;20546;-72